Time;durP1;ratioP1;P1;durP2;ratioP2;P2;SDS_P1;SDS_P2;PMS_P1;PMS_P2;Temp;Humidity;BMP_temperature;BMP_pressure;BME280_temperature;BME280_humidity;BME280_pressure;Samples;Min_cycle;Max_cycle;Signal;HPM_P1;HPM_P2
2023/12/14 00:00:23;;;;;;;15.32;8.07;;;;;;;;;;4947704;29;20038;-81
2023/12/14 00:02:49;;;;;;;21.42;9.88;;;;;;;;;;4929390;29;20038;-80
2023/12/14 00:05:16;;;;;;;22.30;9.68;;;;;;;;;;4926700;29;20074;-81
2023/12/14 00:07:43;;;;;;;18.30;9.57;;;;;;;;;;4911692;29;20082;-82
2023/12/14 00:10:08;;;;;;;18.00;10.20;;;;;;;;;;4929567;29;20449;-82
2023/12/14 00:12:34;;;;;;;18.33;10.75;;;;;;;;;;4915597;29;20024;-81
2023/12/14 00:15:00;;;;;;;16.17;9.48;;;;;;;;;;4931721;29;20090;-81
2023/12/14 00:17:26;;;;;;;20.02;10.50;;;;;;;;;;4915403;29;20531;-81
2023/12/14 00:19:54;;;;;;;21.80;11.32;;;;;;;;;;4937444;29;20043;-81
2023/12/14 00:22:20;;;;;;;21.42;11.05;;;;;;;;;;4953741;29;20044;-81
2023/12/14 00:24:46;;;;;;;21.63;12.05;;;;;;;;;;4953923;29;20047;-81
2023/12/14 00:27:12;;;;;;;20.30;11.05;;;;;;;;;;4954827;29;20039;-80
2023/12/14 00:29:37;;;;;;;20.13;11.43;;;;;;;;;;4954188;29;20039;-81
2023/12/14 00:32:03;;;;;;;20.50;11.38;;;;;;;;;;4955617;29;20111;-81
2023/12/14 00:34:29;;;;;;;22.08;12.18;;;;;;;;;;4939795;29;20031;-81
2023/12/14 00:36:55;;;;;;;23.33;12.68;;;;;;;;;;4966296;28;20029;-80
2023/12/14 00:39:21;;;;;;;27.65;12.82;;;;;;;;;;4947106;29;20039;-81
2023/12/14 00:41:47;;;;;;;26.20;12.63;;;;;;;;;;4930337;29;20043;-80
2023/12/14 00:44:12;;;;;;;25.25;12.43;;;;;;;;;;4928921;29;20039;-80
2023/12/14 00:46:38;;;;;;;26.80;12.70;;;;;;;;;;4923061;29;20122;-82
2023/12/14 00:49:04;;;;;;;22.20;12.23;;;;;;;;;;4939362;29;20106;-81
2023/12/14 00:51:29;;;;;;;24.58;12.05;;;;;;;;;;4909581;29;20086;-81
2023/12/14 00:53:55;;;;;;;25.35;12.40;;;;;;;;;;4943607;29;20036;-81
2023/12/14 00:56:21;;;;;;;26.65;11.60;;;;;;;;;;4912726;29;20032;-82
2023/12/14 00:58:46;;;;;;;31.80;12.55;;;;;;;;;;4927756;29;20051;-82
2023/12/14 01:01:12;;;;;;;19.42;10.35;;;;;;;;;;4928596;29;20028;-81
2023/12/14 01:03:38;;;;;;;24.77;11.05;;;;;;;;;;4928380;29;20519;-82
2023/12/14 01:06:03;;;;;;;21.42;11.30;;;;;;;;;;4913516;29;20035;-83
2023/12/14 01:08:29;;;;;;;23.63;11.20;;;;;;;;;;4927308;29;20038;-81
2023/12/14 01:10:55;;;;;;;27.45;11.23;;;;;;;;;;4925706;29;20115;-80
2023/12/14 01:13:20;;;;;;;28.77;11.52;;;;;;;;;;4924333;29;20099;-81
2023/12/14 01:15:46;;;;;;;23.42;12.43;;;;;;;;;;4924872;29;20034;-80
2023/12/14 01:18:12;;;;;;;21.80;11.05;;;;;;;;;;4952648;28;20558;-80
2023/12/14 01:20:38;;;;;;;21.70;10.85;;;;;;;;;;4927414;28;20042;-80
2023/12/14 01:23:04;;;;;;;22.02;9.43;;;;;;;;;;4929790;29;20043;-81
2023/12/14 01:25:29;;;;;;;24.45;10.60;;;;;;;;;;4928022;29;20121;-81
2023/12/14 01:27:55;;;;;;;26.20;10.65;;;;;;;;;;4945274;29;20038;-81
2023/12/14 01:30:21;;;;;;;23.60;10.18;;;;;;;;;;4946142;29;20041;-81
2023/12/14 01:32:46;;;;;;;22.65;10.63;;;;;;;;;;4932452;29;20042;-81
2023/12/14 01:35:12;;;;;;;24.15;10.95;;;;;;;;;;4959903;28;20024;-81
2023/12/14 01:37:38;;;;;;;21.45;10.10;;;;;;;;;;4962670;29;20389;-82
2023/12/14 01:40:04;;;;;;;20.77;10.70;;;;;;;;;;4930577;29;20110;-81
2023/12/14 01:42:30;;;;;;;21.77;11.30;;;;;;;;;;4962758;29;20040;-81
2023/12/14 01:44:58;;;;;;;23.02;10.85;;;;;;;;;;4931030;29;20073;-81
2023/12/14 01:47:24;;;;;;;24.33;10.77;;;;;;;;;;4931453;29;20058;-81
2023/12/14 01:49:49;;;;;;;28.40;11.10;;;;;;;;;;4932787;29;20050;-82
2023/12/14 01:52:15;;;;;;;20.73;10.43;;;;;;;;;;4948924;29;20031;-81
2023/12/14 01:54:41;;;;;;;18.38;9.57;;;;;;;;;;4948699;29;20031;-81
2023/12/14 01:57:07;;;;;;;18.88;9.40;;;;;;;;;;4933591;29;20027;-81
2023/12/14 01:59:33;;;;;;;22.48;9.98;;;;;;;;;;4931236;29;20130;-82
2023/12/14 02:01:59;;;;;;;21.27;9.35;;;;;;;;;;4946995;29;20055;-81
2023/12/14 02:04:27;;;;;;;20.63;10.95;;;;;;;;;;4965918;29;20042;-81
2023/12/14 02:06:53;;;;;;;18.50;9.95;;;;;;;;;;4937562;29;20039;-82
2023/12/14 02:09:19;;;;;;;20.15;9.57;;;;;;;;;;4943801;29;20044;-81
2023/12/14 02:11:44;;;;;;;20.45;10.23;;;;;;;;;;4933479;29;20105;-82
2023/12/14 02:14:10;;;;;;;22.83;10.93;;;;;;;;;;4936802;29;20107;-81
2023/12/14 02:16:38;;;;;;;22.83;10.73;;;;;;;;;;4919381;29;20060;-82
2023/12/14 02:19:04;;;;;;;22.70;10.75;;;;;;;;;;4952928;29;20047;-82
2023/12/14 02:21:29;;;;;;;21.20;10.52;;;;;;;;;;4948494;29;20036;-81
2023/12/14 02:23:55;;;;;;;24.92;11.18;;;;;;;;;;4925007;29;20367;-80
2023/12/14 02:26:21;;;;;;;19.10;9.40;;;;;;;;;;4944807;29;20042;-81
2023/12/14 02:28:48;;;;;;;23.27;11.48;;;;;;;;;;4944170;29;20129;-81
2023/12/14 02:31:14;;;;;;;20.17;10.77;;;;;;;;;;4958722;28;20028;-80
2023/12/14 02:33:40;;;;;;;22.35;11.05;;;;;;;;;;4940022;29;20059;-80
2023/12/14 02:36:06;;;;;;;20.60;10.15;;;;;;;;;;4928076;29;20095;-80
2023/12/14 02:38:31;;;;;;;23.02;11.30;;;;;;;;;;4927196;29;20028;-80
2023/12/14 02:40:57;;;;;;;22.85;10.68;;;;;;;;;;4927598;29;20038;-82
2023/12/14 02:43:23;;;;;;;21.52;10.13;;;;;;;;;;4957267;28;20039;-80
2023/12/14 02:45:49;;;;;;;21.60;10.80;;;;;;;;;;4957870;29;20059;-82
2023/12/14 02:48:15;;;;;;;23.40;9.88;;;;;;;;;;4944278;29;20046;-80
2023/12/14 02:50:41;;;;;;;20.48;10.35;;;;;;;;;;4976116;28;20039;-80
2023/12/14 02:53:06;;;;;;;31.42;10.52;;;;;;;;;;4927472;29;20515;-80
2023/12/14 02:55:32;;;;;;;23.35;9.55;;;;;;;;;;4928257;29;20035;-81
2023/12/14 02:57:59;;;;;;;19.95;9.82;;;;;;;;;;4944557;29;20019;-81
2023/12/14 03:00:25;;;;;;;25.27;10.88;;;;;;;;;;4944701;29;20039;-80
2023/12/14 03:02:50;;;;;;;21.27;9.43;;;;;;;;;;4960284;28;20047;-81
2023/12/14 03:05:18;;;;;;;20.80;9.02;;;;;;;;;;4959003;29;20381;-80
2023/12/14 03:07:44;;;;;;;21.92;9.88;;;;;;;;;;4942474;29;20042;-81
2023/12/14 03:10:09;;;;;;;30.05;9.68;;;;;;;;;;4928610;29;20107;-81
2023/12/14 03:12:35;;;;;;;17.45;7.90;;;;;;;;;;4960515;29;20038;-80
2023/12/14 03:15:01;;;;;;;18.63;8.07;;;;;;;;;;4936900;29;20027;-81
2023/12/14 03:17:26;;;;;;;17.33;8.50;;;;;;;;;;4974342;28;20028;-81
2023/12/14 03:19:52;;;;;;;17.73;8.32;;;;;;;;;;4961400;28;20039;-81
2023/12/14 03:22:17;;;;;;;21.30;9.07;;;;;;;;;;4928350;29;20042;-80
2023/12/14 03:24:43;;;;;;;24.88;9.65;;;;;;;;;;4942838;29;20042;-80
2023/12/14 03:27:11;;;;;;;19.25;8.18;;;;;;;;;;4961985;29;20046;-81
2023/12/14 03:29:37;;;;;;;14.27;7.68;;;;;;;;;;4927454;29;20036;-80
2023/12/14 03:32:03;;;;;;;17.98;7.85;;;;;;;;;;4942994;29;20046;-80
2023/12/14 03:34:28;;;;;;;16.38;7.55;;;;;;;;;;4922570;29;20034;-79
2023/12/14 03:36:54;;;;;;;17.88;8.38;;;;;;;;;;4940619;29;20032;-80
2023/12/14 03:39:20;;;;;;;17.45;8.05;;;;;;;;;;4940535;29;20043;-81
2023/12/14 03:41:45;;;;;;;18.08;8.05;;;;;;;;;;4941206;29;20032;-82
2023/12/14 03:44:11;;;;;;;16.27;7.63;;;;;;;;;;4946365;29;20051;-81
2023/12/14 03:46:37;;;;;;;20.15;7.88;;;;;;;;;;4929604;29;20043;-81
2023/12/14 03:49:03;;;;;;;18.35;7.18;;;;;;;;;;4935877;29;20042;-80
2023/12/14 03:51:29;;;;;;;18.00;8.48;;;;;;;;;;4934084;29;20378;-81
2023/12/14 03:53:55;;;;;;;13.15;6.78;;;;;;;;;;4933494;29;20126;-81
2023/12/14 03:56:21;;;;;;;13.82;7.00;;;;;;;;;;4932796;29;20062;-81
2023/12/14 03:58:46;;;;;;;16.52;7.10;;;;;;;;;;4965036;29;20035;-79
2023/12/14 04:01:19;;;;;;;17.23;7.45;;;;;;;;;;4933252;29;20037;-80
2023/12/14 04:03:45;;;;;;;15.23;7.13;;;;;;;;;;4933104;29;20028;-81
2023/12/14 04:06:11;;;;;;;16.65;7.95;;;;;;;;;;4934147;29;20058;-80
2023/12/14 04:08:37;;;;;;;15.70;8.07;;;;;;;;;;4929639;29;20055;-80
2023/12/14 04:11:03;;;;;;;19.52;7.03;;;;;;;;;;4930136;29;20409;-82
2023/12/14 04:13:29;;;;;;;18.20;7.70;;;;;;;;;;4913820;29;20047;-80
2023/12/14 04:15:55;;;;;;;17.23;8.52;;;;;;;;;;4928500;29;20046;-82
2023/12/14 04:18:21;;;;;;;20.95;8.45;;;;;;;;;;4927747;29;20110;-81
2023/12/14 04:20:47;;;;;;;20.27;8.30;;;;;;;;;;4928224;29;20110;-81
2023/12/14 04:23:13;;;;;;;18.58;8.18;;;;;;;;;;4928917;29;20095;-81
2023/12/14 04:25:38;;;;;;;16.45;8.23;;;;;;;;;;4943946;29;20069;-81
2023/12/14 04:28:04;;;;;;;22.30;8.98;;;;;;;;;;4934093;29;20042;-80
2023/12/14 04:30:30;;;;;;;18.33;8.68;;;;;;;;;;4963950;29;20098;-81
2023/12/14 04:32:57;;;;;;;17.20;8.18;;;;;;;;;;4932007;29;20083;-81
2023/12/14 04:35:22;;;;;;;17.95;9.25;;;;;;;;;;4962868;29;20030;-80
2023/12/14 04:37:48;;;;;;;17.27;8.68;;;;;;;;;;4932251;29;20071;-80
2023/12/14 04:40:14;;;;;;;21.98;9.45;;;;;;;;;;4946299;29;20035;-81
2023/12/14 04:42:40;;;;;;;21.13;9.57;;;;;;;;;;4947259;29;20031;-81
2023/12/14 04:45:06;;;;;;;20.20;9.52;;;;;;;;;;4964876;28;20449;-80
2023/12/14 04:47:32;;;;;;;20.67;10.05;;;;;;;;;;4933166;29;20507;-81
2023/12/14 04:49:57;;;;;;;18.45;9.88;;;;;;;;;;4985849;28;20039;-80
2023/12/14 04:52:23;;;;;;;28.35;10.85;;;;;;;;;;4936310;29;20512;-82
2023/12/14 04:54:49;;;;;;;25.02;10.70;;;;;;;;;;4952652;29;20034;-81
2023/12/14 04:57:15;;;;;;;19.52;9.00;;;;;;;;;;4950862;29;20036;-82
2023/12/14 04:59:42;;;;;;;17.50;9.00;;;;;;;;;;4934699;29;20039;-81
2023/12/14 05:02:08;;;;;;;13.25;7.00;;;;;;;;;;4917566;29;20125;-81
2023/12/14 05:04:33;;;;;;;15.27;7.30;;;;;;;;;;4933146;29;20084;-81
2023/12/14 05:06:59;;;;;;;13.07;7.00;;;;;;;;;;4936324;29;20047;-82
2023/12/14 05:09:25;;;;;;;14.88;7.10;;;;;;;;;;4937641;29;20052;-81
2023/12/14 05:11:51;;;;;;;13.00;7.35;;;;;;;;;;4938276;29;20043;-81
2023/12/14 05:14:17;;;;;;;16.85;8.13;;;;;;;;;;4937894;29;20067;-81
2023/12/14 05:16:43;;;;;;;18.52;8.25;;;;;;;;;;4924393;29;20040;-82
2023/12/14 05:19:09;;;;;;;13.98;6.65;;;;;;;;;;4939200;29;20122;-80
2023/12/14 05:21:36;;;;;;;13.02;6.95;;;;;;;;;;4954990;29;20064;-81
2023/12/14 05:24:02;;;;;;;14.38;7.40;;;;;;;;;;4953923;29;20039;-82
2023/12/14 05:26:28;;;;;;;13.82;7.20;;;;;;;;;;4937948;29;20050;-82
2023/12/14 05:28:54;;;;;;;13.27;6.57;;;;;;;;;;4949594;29;20172;-82
2023/12/14 05:31:20;;;;;;;14.25;6.75;;;;;;;;;;4974574;29;20063;-80
2023/12/14 05:33:46;;;;;;;12.10;6.72;;;;;;;;;;4943320;29;20051;-81
2023/12/14 05:36:11;;;;;;;17.88;8.30;;;;;;;;;;4974716;28;20039;-81
2023/12/14 05:38:41;;;;;;;14.52;6.35;;;;;;;;;;4974534;29;20041;-80
2023/12/14 05:41:08;;;;;;;11.65;5.78;;;;;;;;;;4967307;29;20051;-81
2023/12/14 05:43:34;;;;;;;11.50;6.40;;;;;;;;;;4942421;29;20035;-82
2023/12/14 05:46:00;;;;;;;13.95;5.95;;;;;;;;;;4942028;29;20038;-82
2023/12/14 05:48:29;;;;;;;11.43;5.60;;;;;;;;;;4972650;29;20027;-81
2023/12/14 05:50:56;;;;;;;11.60;5.43;;;;;;;;;;4920880;29;20059;-83
2023/12/14 05:53:22;;;;;;;11.68;6.07;;;;;;;;;;4930102;29;20032;-82
2023/12/14 05:55:47;;;;;;;13.80;6.28;;;;;;;;;;4931646;29;20054;-82
2023/12/14 05:58:13;;;;;;;10.10;6.13;;;;;;;;;;4930186;29;20038;-82
2023/12/14 06:00:39;;;;;;;12.88;6.78;;;;;;;;;;4929806;29;20130;-80
2023/12/14 06:03:05;;;;;;;11.52;6.38;;;;;;;;;;4929617;29;20039;-82
2023/12/14 06:05:31;;;;;;;12.95;7.05;;;;;;;;;;4930288;29;20126;-83
2023/12/14 06:07:56;;;;;;;14.20;7.13;;;;;;;;;;4914050;29;20047;-82
2023/12/14 06:10:22;;;;;;;11.13;6.60;;;;;;;;;;4915204;29;20063;-82
2023/12/14 06:12:48;;;;;;;12.32;6.97;;;;;;;;;;4946635;29;20038;-80
2023/12/14 06:15:14;;;;;;;14.82;6.90;;;;;;;;;;4946231;29;20038;-82
2023/12/14 06:17:42;;;;;;;12.68;6.70;;;;;;;;;;4930747;29;20051;-81
2023/12/14 06:20:09;;;;;;;10.25;5.38;;;;;;;;;;4935040;29;20027;-82
2023/12/14 06:22:37;;;;;;;13.00;5.75;;;;;;;;;;4946315;29;20094;-82
2023/12/14 06:25:03;;;;;;;;;;;;;;;;;;4947994;29;20093;-81
2023/12/14 06:27:29;;;;;;;11.80;6.05;;;;;;;;;;4948040;29;19969;-82
2023/12/14 06:29:55;;;;;;;12.35;5.63;;;;;;;;;;4932559;29;20129;-81
2023/12/14 06:32:21;;;;;;;9.30;5.30;;;;;;;;;;4948709;29;20472;-82
2023/12/14 06:34:47;;;;;;;9.65;5.20;;;;;;;;;;4933127;29;20046;-80
2023/12/14 06:37:12;;;;;;;11.52;6.30;;;;;;;;;;4947075;29;20023;-83
2023/12/14 06:39:41;;;;;;;10.50;5.78;;;;;;;;;;4949665;29;20039;-82
2023/12/14 06:42:07;;;;;;;11.68;6.13;;;;;;;;;;4947334;29;20047;-80
2023/12/14 06:44:33;;;;;;;10.95;5.80;;;;;;;;;;4932063;29;20041;-80
2023/12/14 06:46:59;;;;;;;11.52;6.43;;;;;;;;;;4928656;29;20145;-80
2023/12/14 06:49:25;;;;;;;12.63;6.63;;;;;;;;;;4943381;29;20111;-82
2023/12/14 06:51:51;;;;;;;14.13;8.52;;;;;;;;;;4928199;29;20066;-81
2023/12/14 06:54:17;;;;;;;11.15;6.90;;;;;;;;;;4941786;29;20389;-81
2023/12/14 06:56:43;;;;;;;12.95;6.72;;;;;;;;;;4929045;29;20039;-81
2023/12/14 06:59:09;;;;;;;15.25;6.72;;;;;;;;;;4929250;29;20458;-81
2023/12/14 07:01:34;;;;;;;13.30;6.40;;;;;;;;;;4928721;29;20164;-83
2023/12/14 07:04:05;;;;;;;16.45;7.38;;;;;;;;;;4929143;29;20043;-81
2023/12/14 07:06:35;;;;;;;14.80;7.72;;;;;;;;;;4930652;29;20035;-83
2023/12/14 07:09:02;;;;;;;15.57;6.82;;;;;;;;;;4936662;29;20099;-82
2023/12/14 07:11:30;;;;;;;13.07;7.03;;;;;;;;;;4970432;29;20135;-82
2023/12/14 07:13:56;;;;;;;13.35;6.97;;;;;;;;;;4969569;28;20055;-82
2023/12/14 07:16:22;;;;;;;15.60;7.22;;;;;;;;;;4936476;28;20109;-82
2023/12/14 07:18:50;;;;;;;13.63;7.40;;;;;;;;;;4941136;29;20043;-82
2023/12/14 07:21:15;;;;;;;15.57;7.53;;;;;;;;;;4942271;29;20031;-82
2023/12/14 07:23:42;;;;;;;16.52;7.40;;;;;;;;;;4940825;29;20042;-79
2023/12/14 07:26:08;;;;;;;14.13;6.43;;;;;;;;;;4952900;29;20031;-82
2023/12/14 07:28:34;;;;;;;12.55;6.25;;;;;;;;;;4938516;29;20028;-82
2023/12/14 07:31:03;;;;;;;13.30;7.10;;;;;;;;;;4924055;29;20012;-81
2023/12/14 07:33:29;;;;;;;11.38;6.15;;;;;;;;;;4923044;29;20046;-81
2023/12/14 07:35:58;;;;;;;10.82;5.40;;;;;;;;;;4939941;29;20040;-82
2023/12/14 07:38:24;;;;;;;11.40;5.75;;;;;;;;;;4937202;29;20508;-80
2023/12/14 07:40:52;;;;;;;11.80;6.10;;;;;;;;;;4928808;29;20043;-81
2023/12/14 07:43:18;;;;;;;14.73;7.35;;;;;;;;;;4955185;29;20035;-82
2023/12/14 07:45:44;;;;;;;17.00;7.78;;;;;;;;;;4942186;29;20019;-82
2023/12/14 07:48:10;;;;;;;18.13;9.15;;;;;;;;;;4958539;29;20059;-82
2023/12/14 07:50:36;;;;;;;15.32;8.82;;;;;;;;;;4974186;28;20022;-82
2023/12/14 07:53:02;;;;;;;16.08;8.63;;;;;;;;;;4956567;29;20043;-81
2023/12/14 07:55:32;;;;;;;16.45;8.70;;;;;;;;;;4969729;28;20036;-80
2023/12/14 07:57:58;;;;;;;14.70;8.20;;;;;;;;;;4971704;29;20031;-82
2023/12/14 08:00:24;;;;;;;18.08;8.65;;;;;;;;;;4938085;29;20043;-82
2023/12/14 08:02:51;;;;;;;16.45;8.80;;;;;;;;;;4936017;29;20059;-82
2023/12/14 08:05:16;;;;;;;15.85;8.75;;;;;;;;;;4966979;29;20044;-82
2023/12/14 08:07:42;;;;;;;15.75;7.47;;;;;;;;;;4963847;28;20036;-82
2023/12/14 08:10:08;;;;;;;14.50;7.15;;;;;;;;;;4964988;29;20044;-81
2023/12/14 08:12:34;;;;;;;13.60;7.65;;;;;;;;;;4963624;29;20110;-82
2023/12/14 08:15:00;;;;;;;15.80;7.85;;;;;;;;;;4952130;29;20125;-81
2023/12/14 08:17:27;;;;;;;14.98;8.10;;;;;;;;;;4935431;29;20035;-82
2023/12/14 08:19:54;;;;;;;15.10;8.07;;;;;;;;;;4934301;29;20031;-82
2023/12/14 08:22:21;;;;;;;14.48;7.63;;;;;;;;;;4965450;29;20070;-80
2023/12/14 08:24:47;;;;;;;14.35;7.07;;;;;;;;;;4934319;29;20051;-81
2023/12/14 08:27:13;;;;;;;12.07;7.43;;;;;;;;;;4967650;28;20035;-80
2023/12/14 08:29:39;;;;;;;15.50;9.05;;;;;;;;;;4929263;29;20038;-80
2023/12/14 08:32:05;;;;;;;15.25;8.85;;;;;;;;;;4930466;29;20034;-81
2023/12/14 08:34:31;;;;;;;19.05;9.82;;;;;;;;;;4928687;29;20031;-81
2023/12/14 08:36:57;;;;;;;15.23;7.95;;;;;;;;;;4912829;29;20114;-80
2023/12/14 08:39:22;;;;;;;13.73;7.18;;;;;;;;;;4946881;29;20126;-80
2023/12/14 08:41:48;;;;;;;12.45;6.70;;;;;;;;;;4914653;29;20059;-82
2023/12/14 08:44:15;;;;;;;12.30;7.18;;;;;;;;;;4946279;29;20031;-81
2023/12/14 08:46:41;;;;;;;12.07;6.53;;;;;;;;;;4945147;29;20047;-83
2023/12/14 08:49:08;;;;;;;13.77;7.10;;;;;;;;;;4953781;29;20035;-81
2023/12/14 08:51:33;;;;;;;13.82;7.25;;;;;;;;;;4935421;29;20135;-81
2023/12/14 08:53:59;;;;;;;12.88;6.88;;;;;;;;;;4938946;29;20041;-81
2023/12/14 08:56:25;;;;;;;13.65;7.60;;;;;;;;;;4970654;28;20102;-80
2023/12/14 08:58:52;;;;;;;10.93;6.30;;;;;;;;;;4957029;29;20035;-82
2023/12/14 09:01:21;;;;;;;10.88;6.28;;;;;;;;;;4949085;29;20043;-80
2023/12/14 09:03:47;;;;;;;15.32;7.60;;;;;;;;;;4951202;29;20111;-82
2023/12/14 09:06:14;;;;;;;11.85;7.53;;;;;;;;;;4953002;29;20174;-82
2023/12/14 09:08:40;;;;;;;15.65;7.95;;;;;;;;;;4939413;29;20138;-82
2023/12/14 09:11:06;;;;;;;15.23;7.93;;;;;;;;;;4954566;29;20062;-80
2023/12/14 09:13:32;;;;;;;15.70;8.93;;;;;;;;;;4938455;29;20095;-82
2023/12/14 09:15:58;;;;;;;19.77;9.98;;;;;;;;;;4951055;29;20016;-82
2023/12/14 09:18:24;;;;;;;17.27;10.18;;;;;;;;;;4938417;29;20042;-82
2023/12/14 09:20:50;;;;;;;19.88;10.95;;;;;;;;;;4954849;29;20110;-82
2023/12/14 09:23:16;;;;;;;18.13;9.73;;;;;;;;;;4936131;29;20059;-81
2023/12/14 09:25:42;;;;;;;19.42;9.95;;;;;;;;;;4936516;29;20048;-82
2023/12/14 09:28:09;;;;;;;15.15;8.93;;;;;;;;;;4937922;29;20055;-82
2023/12/14 09:30:35;;;;;;;18.17;9.05;;;;;;;;;;4944956;29;20050;-81
2023/12/14 09:33:01;;;;;;;15.45;8.82;;;;;;;;;;4940019;29;20127;-83
2023/12/14 09:35:27;;;;;;;14.45;7.85;;;;;;;;;;4972181;28;20031;-82
2023/12/14 09:37:53;;;;;;;15.82;7.85;;;;;;;;;;4969968;29;20087;-81
2023/12/14 09:40:19;;;;;;;16.95;9.30;;;;;;;;;;4971039;28;20024;-82
2023/12/14 09:42:49;;;;;;;11.57;6.10;;;;;;;;;;4938719;29;20062;-82
2023/12/14 09:45:16;;;;;;;10.48;5.88;;;;;;;;;;4964161;29;20086;-81
2023/12/14 09:47:44;;;;;;;9.95;5.93;;;;;;;;;;4916079;29;20235;-80
2023/12/14 09:50:10;;;;;;;8.50;5.15;;;;;;;;;;4916211;29;20038;-81
2023/12/14 09:52:36;;;;;;;9.43;4.95;;;;;;;;;;4930965;29;20074;-82
2023/12/14 09:55:03;;;;;;;8.40;4.88;;;;;;;;;;4932755;29;20037;-82
2023/12/14 09:57:29;;;;;;;9.52;5.05;;;;;;;;;;4917709;29;20031;-82
2023/12/14 09:59:58;;;;;;;9.70;5.68;;;;;;;;;;4919363;29;20050;-81
2023/12/14 10:02:28;;;;;;;11.07;5.70;;;;;;;;;;4956605;28;20035;-80
2023/12/14 10:04:53;;;;;;;7.32;4.88;;;;;;;;;;4964568;29;20035;-83
2023/12/14 10:07:21;;;;;;;12.32;6.00;;;;;;;;;;4946407;29;20071;-80
2023/12/14 10:09:47;;;;;;;10.43;6.00;;;;;;;;;;4946135;29;20063;-80
2023/12/14 10:12:13;;;;;;;11.27;6.38;;;;;;;;;;4946591;29;20055;-82
2023/12/14 10:14:42;;;;;;;10.43;5.90;;;;;;;;;;4946567;29;20130;-82
2023/12/14 10:17:17;;;;;;;9.32;5.63;;;;;;;;;;4958861;29;20038;-82
2023/12/14 10:19:44;;;;;;;9.75;5.55;;;;;;;;;;4928191;29;20118;-81
2023/12/14 10:22:10;;;;;;;10.27;4.85;;;;;;;;;;4926417;29;20539;-79
2023/12/14 10:24:36;;;;;;;6.72;4.03;;;;;;;;;;4927894;29;20036;-80
2023/12/14 10:27:07;;;;;;;10.73;5.45;;;;;;;;;;4926391;29;20047;-81
2023/12/14 10:29:34;;;;;;;11.45;6.13;;;;;;;;;;4926145;29;20042;-82
2023/12/14 10:32:01;;;;;;;10.50;4.95;;;;;;;;;;4925795;29;20059;-80
2023/12/14 10:34:28;;;;;;;7.90;4.80;;;;;;;;;;4921973;29;20044;-80
2023/12/14 10:36:54;;;;;;;9.00;5.47;;;;;;;;;;4941747;29;20133;-79
2023/12/14 10:39:23;;;;;;;7.65;4.90;;;;;;;;;;4922179;29;20071;-76
2023/12/14 10:41:48;;;;;;;;;;;;;;;;;;4942376;29;20496;-76
2023/12/14 10:44:15;;;;;;;8.15;4.80;;;;;;;;;;4956514;28;19916;-77
2023/12/14 10:46:41;;;;;;;10.20;5.68;;;;;;;;;;4955799;29;20480;-76
2023/12/14 10:49:07;;;;;;;9.07;5.00;;;;;;;;;;4960776;28;20059;-83
2023/12/14 10:51:34;;;;;;;8.65;4.88;;;;;;;;;;4927921;29;20045;-81
2023/12/14 10:54:00;;;;;;;8.73;4.68;;;;;;;;;;4930546;29;20389;-81
2023/12/14 10:56:27;;;;;;;10.23;5.18;;;;;;;;;;4928153;29;20028;-81
2023/12/14 10:58:54;;;;;;;8.63;4.18;;;;;;;;;;4930717;29;20404;-82
2023/12/14 11:01:24;;;;;;;7.22;4.03;;;;;;;;;;4926372;29;20090;-82
2023/12/14 11:03:52;;;;;;;9.82;4.60;;;;;;;;;;4933702;29;20596;-82
2023/12/14 11:06:22;;;;;;;10.27;5.05;;;;;;;;;;4918429;29;20621;-82
2023/12/14 11:08:50;;;;;;;8.13;4.70;;;;;;;;;;4918628;29;20067;-81
2023/12/14 11:11:20;;;;;;;7.60;4.70;;;;;;;;;;4915620;29;20147;-81
2023/12/14 11:13:52;;;;;;;9.93;5.07;;;;;;;;;;4934922;29;20647;-82
2023/12/14 11:16:22;;;;;;;11.05;5.30;;;;;;;;;;4934676;29;20103;-83
2023/12/14 11:18:48;;;;;;;8.95;5.15;;;;;;;;;;4918061;28;20047;-81
2023/12/14 11:21:21;;;;;;;10.10;5.70;;;;;;;;;;4929775;29;20040;-82
2023/12/14 11:23:50;;;;;;;9.05;5.35;;;;;;;;;;4944007;29;20043;-80
2023/12/14 11:26:16;;;;;;;;;;;;;;;;;;4934377;29;20047;-82
2023/12/14 11:28:45;;;;;;;7.93;4.85;;;;;;;;;;4947952;29;19911;-82
2023/12/14 11:31:12;;;;;;;9.60;5.03;;;;;;;;;;4963090;29;20385;-81
2023/12/14 11:33:39;;;;;;;5.07;3.08;;;;;;;;;;4932721;29;20035;-81
2023/12/14 11:36:05;;;;;;;13.23;4.72;;;;;;;;;;4951404;29;20046;-82
2023/12/14 11:38:32;;;;;;;7.25;3.33;;;;;;;;;;4936079;29;20070;-82
2023/12/14 11:40:59;;;;;;;6.55;3.13;;;;;;;;;;4958195;29;20046;-83
2023/12/14 11:43:26;;;;;;;7.82;3.78;;;;;;;;;;4977223;28;20071;-81
2023/12/14 11:45:54;;;;;;;6.38;3.20;;;;;;;;;;4946760;29;20063;-82
2023/12/14 11:48:20;;;;;;;6.27;3.00;;;;;;;;;;4976599;28;20035;-83
2023/12/14 11:50:47;;;;;;;5.53;2.75;;;;;;;;;;4972634;28;20285;-81
2023/12/14 11:53:13;;;;;;;5.43;2.97;;;;;;;;;;4936573;29;20602;-82
2023/12/14 11:55:40;;;;;;;7.18;2.88;;;;;;;;;;4936339;29;20035;-81
2023/12/14 11:58:06;;;;;;;10.48;3.88;;;;;;;;;;4936676;29;20035;-83
2023/12/14 12:00:37;;;;;;;6.40;3.13;;;;;;;;;;4938821;29;20102;-82
2023/12/14 12:03:07;;;;;;;6.05;3.20;;;;;;;;;;4939412;29;20039;-82
2023/12/14 12:05:42;;;;;;;7.47;3.20;;;;;;;;;;4955731;29;20035;-82
2023/12/14 12:08:09;;;;;;;6.35;2.92;;;;;;;;;;4983196;28;20035;-82
2023/12/14 12:10:36;;;;;;;7.45;2.88;;;;;;;;;;4949736;29;20047;-82
2023/12/14 12:13:04;;;;;;;5.22;2.75;;;;;;;;;;4936344;29;20028;-80
2023/12/14 12:15:36;;;;;;;5.43;2.83;;;;;;;;;;4970069;29;20081;-81
2023/12/14 12:18:05;;;;;;;5.35;2.85;;;;;;;;;;4953583;29;20031;-81
2023/12/14 12:20:32;;;;;;;9.30;3.70;;;;;;;;;;4939537;29;20042;-79
2023/12/14 12:22:58;;;;;;;8.40;3.47;;;;;;;;;;4947662;29;20063;-81
2023/12/14 12:25:24;;;;;;;9.05;3.65;;;;;;;;;;4930065;29;20038;-81
2023/12/14 12:27:49;;;;;;;6.75;3.45;;;;;;;;;;4945729;29;20043;-80
2023/12/14 12:30:15;;;;;;;10.30;4.47;;;;;;;;;;4931688;29;20035;-82
2023/12/14 12:32:42;;;;;;;13.43;5.70;;;;;;;;;;4933962;29;20047;-80
2023/12/14 12:35:08;;;;;;;10.85;5.22;;;;;;;;;;4931552;29;20031;-82
2023/12/14 12:37:34;;;;;;;8.10;5.03;;;;;;;;;;4933668;29;20098;-81
2023/12/14 12:40:00;;;;;;;9.68;5.60;;;;;;;;;;4933689;29;20039;-82
2023/12/14 12:42:26;;;;;;;9.40;4.35;;;;;;;;;;4932675;29;20035;-82
2023/12/14 12:44:55;;;;;;;12.93;4.60;;;;;;;;;;4932961;29;20122;-82
2023/12/14 12:47:21;;;;;;;7.28;3.92;;;;;;;;;;4934386;29;20034;-82
2023/12/14 12:49:47;;;;;;;11.02;5.07;;;;;;;;;;4950326;29;20134;-81
2023/12/14 12:52:13;;;;;;;7.13;4.30;;;;;;;;;;4951370;29;20057;-82
2023/12/14 12:54:40;;;;;;;10.55;5.10;;;;;;;;;;4932502;29;20027;-80
2023/12/14 12:57:06;;;;;;;11.68;4.80;;;;;;;;;;4936855;29;20031;-81
2023/12/14 12:59:32;;;;;;;14.85;7.00;;;;;;;;;;4952155;29;20047;-82
2023/12/14 13:01:58;;;;;;;9.13;4.97;;;;;;;;;;4935329;29;20492;-82
2023/12/14 13:04:24;;;;;;;7.72;4.22;;;;;;;;;;4950583;29;20377;-80
2023/12/14 13:06:50;;;;;;;8.20;4.30;;;;;;;;;;4934488;29;20044;-82
2023/12/14 13:09:16;;;;;;;9.73;4.45;;;;;;;;;;4967340;29;20099;-82
2023/12/14 13:11:43;;;;;;;8.85;4.90;;;;;;;;;;4919741;29;20083;-81
2023/12/14 13:14:09;;;;;;;9.25;4.00;;;;;;;;;;4949827;29;20099;-80
2023/12/14 13:16:35;;;;;;;7.38;3.50;;;;;;;;;;4949626;29;20031;-80
2023/12/14 13:19:03;;;;;;;8.50;3.58;;;;;;;;;;4953719;29;20031;-80
2023/12/14 13:21:29;;;;;;;7.35;3.50;;;;;;;;;;4953785;29;20051;-82
2023/12/14 13:23:57;;;;;;;6.00;3.15;;;;;;;;;;4919396;29;20031;-81
2023/12/14 13:26:23;;;;;;;8.90;3.45;;;;;;;;;;4947387;29;20095;-81
2023/12/14 13:28:49;;;;;;;6.22;2.63;;;;;;;;;;4944106;29;20043;-81
2023/12/14 13:31:16;;;;;;;5.85;2.67;;;;;;;;;;4924040;29;20027;-80
2023/12/14 13:33:42;;;;;;;5.75;2.85;;;;;;;;;;4939665;29;20091;-81
2023/12/14 13:36:08;;;;;;;7.00;3.25;;;;;;;;;;4938714;29;20489;-81
2023/12/14 13:38:35;;;;;;;6.00;3.30;;;;;;;;;;4943353;29;20203;-82
2023/12/14 13:41:02;;;;;;;8.88;3.55;;;;;;;;;;4942033;29;20031;-80
2023/12/14 13:43:28;;;;;;;9.10;3.40;;;;;;;;;;4944683;29;20035;-81
2023/12/14 13:45:57;;;;;;;7.38;3.35;;;;;;;;;;4942286;29;20059;-79
2023/12/14 13:48:24;;;;;;;8.18;4.53;;;;;;;;;;4955671;29;20043;-82
2023/12/14 13:50:50;;;;;;;8.98;3.40;;;;;;;;;;4929614;29;20606;-81
2023/12/14 13:53:16;;;;;;;8.18;3.75;;;;;;;;;;4931288;29;20480;-81
2023/12/14 13:55:42;;;;;;;6.38;2.92;;;;;;;;;;4945373;29;20031;-81
2023/12/14 13:58:08;;;;;;;9.18;4.15;;;;;;;;;;4943479;29;20038;-81
2023/12/14 14:00:36;;;;;;;10.05;3.90;;;;;;;;;;4944001;29;20042;-81
2023/12/14 14:03:03;;;;;;;;;;;;;;;;;;4962983;29;20039;-79
2023/12/14 14:05:29;;;;;;;7.53;3.63;;;;;;;;;;4932087;29;19906;-81
2023/12/14 14:07:55;;;;;;;7.07;3.75;;;;;;;;;;4946840;29;20403;-83
2023/12/14 14:10:21;;;;;;;9.13;4.00;;;;;;;;;;4947840;29;20035;-80
2023/12/14 14:12:47;;;;;;;11.02;4.50;;;;;;;;;;4933095;29;20035;-80
2023/12/14 14:15:13;;;;;;;7.00;3.38;;;;;;;;;;4950452;29;20042;-81
2023/12/14 14:17:40;;;;;;;10.00;3.28;;;;;;;;;;4934134;29;20102;-82
2023/12/14 14:20:07;;;;;;;8.88;4.00;;;;;;;;;;4966324;28;20043;-81
2023/12/14 14:22:33;;;;;;;11.57;5.68;;;;;;;;;;4947995;29;20027;-81
2023/12/14 14:25:00;;;;;;;10.88;5.32;;;;;;;;;;4932876;29;20035;-80